Time;durP1;ratioP1;P1;durP2;ratioP2;P2;SDS_P1;SDS_P2;PMS_P1;PMS_P2;Temp;Humidity;BMP_temperature;BMP_pressure;BME280_temperature;BME280_humidity;BME280_pressure;Samples;Min_cycle;Max_cycle;Signal;HPM_P1;HPM_P2
2021/07/28 00:00:15;;;;;;;4.43;4.03;;;;;;;;;;491106;241;27389;-69
2021/07/28 00:02:16;;;;;;;5.37;4.87;;;15.80;99.90;;;;;;491094;241;26458;-69
2021/07/28 00:04:18;;;;;;;4.60;4.20;;;;;;;;;;491108;241;28731;-70
2021/07/28 00:06:19;;;;;;;6.03;5.43;;;15.80;99.90;;;;;;491085;241;27393;-70
2021/07/28 00:08:23;;;;;;;5.80;5.20;;;;;;;;;;491081;241;28764;-71
2021/07/28 00:10:25;;;;;;;5.00;4.50;;;;;;;;;;491110;241;26251;-69
2021/07/28 00:12:27;;;;;;;5.50;4.90;;;15.70;99.90;;;;;;491073;241;27465;-70
2021/07/28 00:14:29;;;;;;;4.50;4.10;;;15.70;99.90;;;;;;491148;240;27484;-69
2021/07/28 00:16:32;;;;;;;4.90;4.40;;;;;;;;;;491098;241;27862;-70
2021/07/28 00:18:42;;;;;;;5.00;4.50;;;15.60;99.90;;;;;;491142;241;26339;-69
2021/07/28 00:24:58;;;;;;;5.50;4.90;;;;;;;;;;491056;242;27397;-72
2021/07/28 00:27:00;;;;;;;5.37;4.87;;;;;;;;;;491021;241;27468;-69
2021/07/28 00:29:02;;;;;;;5.13;4.73;;;;;;;;;;491054;241;27385;-72
2021/07/28 00:31:04;;;;;;;6.00;4.40;;;;;;;;;;491059;241;27389;-72
2021/07/28 00:33:06;;;;;;;4.57;4.17;;;;;;;;;;491035;241;27844;-69
2021/07/28 00:35:10;;;;;;;5.83;4.60;;;;;;;;;;491096;241;27832;-69
2021/07/28 00:37:12;;;;;;;6.13;4.80;;;;;;;;;;491040;241;26327;-71
2021/07/28 00:39:15;;;;;;;5.50;4.97;;;;;;;;;;490923;241;27440;-72
2021/07/28 00:41:17;;;;;;;5.57;5.07;;;;;;;;;;491111;241;26268;-70
2021/07/28 00:43:19;;;;;;;5.60;5.00;;;;;;;;;;490938;241;27619;-70
2021/07/28 00:45:22;;;;;;;5.47;4.97;;;;;;;;;;491069;241;27489;-69
2021/07/28 00:47:25;;;;;;;5.13;4.70;;;;;;;;;;491073;241;26738;-70
2021/07/28 00:49:27;;;;;;;5.80;5.30;;;;;;;;;;491100;242;27867;-69
2021/07/28 00:51:28;;;;;;;4.40;4.00;;;15.20;99.90;;;;;;491098;241;27893;-70
2021/07/28 00:53:30;;;;;;;5.13;4.53;;;;;;;;;;491084;241;28869;-71
2021/07/28 00:55:32;;;;;;;5.23;4.70;;;15.30;99.90;;;;;;491077;241;27508;-71
2021/07/28 00:57:34;;;;;;;5.50;5.00;;;;;;;;;;491102;241;27420;-69
2021/07/28 00:59:36;;;;;;;8.13;5.07;;;;;;;;;;491120;241;27529;-71
2021/07/28 01:01:38;;;;;;;5.57;4.80;;;;;;;;;;491127;241;27420;-71
2021/07/28 01:03:42;;;;;;;5.10;4.53;;;;;;;;;;491079;241;27511;-71
2021/07/28 01:05:42;;;;;;;5.47;4.97;;;;;;;;;;491026;242;27418;-72
2021/07/28 01:07:44;;;;;;;5.97;5.23;;;;;;;;;;491072;241;27430;-70
2021/07/28 01:09:48;;;;;;;5.17;4.67;;;;;;;;;;491093;241;27425;-71
2021/07/28 01:11:50;;;;;;;6.23;5.00;;;;;;;;;;491105;241;26735;-69
2021/07/28 01:13:52;;;;;;;6.33;5.10;;;15.10;99.90;;;;;;491108;241;27923;-71
2021/07/28 01:15:55;;;;;;;6.93;5.70;;;;;;;;;;491118;241;27385;-71
2021/07/28 01:17:57;;;;;;;5.63;5.03;;;;;;;;;;491013;241;26770;-71
2021/07/28 01:19:59;;;;;;;5.30;4.80;;;;;;;;;;491070;241;27903;-72
2021/07/28 01:22:00;;;;;;;5.70;5.20;;;15.00;99.90;;;;;;491103;241;27882;-72
2021/07/28 01:24:04;;;;;;;6.13;5.23;;;;;;;;;;491073;240;28774;-71
2021/07/28 01:26:06;;;;;;;5.77;5.20;;;;;;;;;;491101;241;26268;-70
2021/07/28 01:28:08;;;;;;;6.50;5.80;;;;;;;;;;491101;241;27514;-70
2021/07/28 01:30:10;;;;;;;6.47;5.33;;;;;;;;;;491110;241;27949;-70
2021/07/28 01:32:12;;;;;;;5.63;5.13;;;;;;;;;;491097;236;27849;-69
2021/07/28 01:34:14;;;;;;;5.47;4.97;;;;;;;;;;491133;241;27957;-70
2021/07/28 01:36:16;;;;;;;5.27;4.77;;;15.00;99.90;;;;;;491145;241;27843;-70
2021/07/28 01:38:25;;;;;;;6.17;5.57;;;;;;;;;;491105;241;27484;-71
2021/07/28 01:40:19;;;;;;;5.43;4.93;;;15.00;99.90;;;;;;490747;242;27373;-72
2021/07/28 01:42:21;;;;;;;5.40;4.90;;;;;;;;;;491109;240;28868;-71
2021/07/28 01:44:23;;;;;;;6.33;4.90;;;;;;;;;;491124;241;27513;-70
2021/07/28 01:46:26;;;;;;;7.70;6.17;;;;;;;;;;491127;241;27543;-71
2021/07/28 01:48:28;;;;;;;6.00;5.23;;;;;;;;;;491097;241;26418;-72
2021/07/28 01:50:32;;;;;;;6.10;5.50;;;;;;;;;;491119;241;27853;-69
2021/07/28 01:52:34;;;;;;;6.43;5.80;;;;;;;;;;491090;241;26767;-69
2021/07/28 01:54:37;;;;;;;6.27;5.67;;;;;;;;;;491101;241;27991;-69
2021/07/28 01:56:43;;;;;;;6.40;5.27;;;;;;;;;;491117;241;26364;-69
2021/07/28 01:58:53;;;;;;;7.50;5.23;;;14.90;99.90;;;;;;491013;241;26312;-71
2021/07/28 02:00:47;;;;;;;5.63;5.13;;;;;;;;;;490249;242;27939;-71
2021/07/28 02:02:51;;;;;;;6.07;5.10;;;;;;;;;;490437;241;27851;-69
2021/07/28 02:04:56;;;;;;;7.10;6.40;;;;;;;;;;489800;241;26375;-71
2021/07/28 02:06:55;;;;;;;5.73;5.23;;;;;;;;;;490177;242;27471;-69
2021/07/28 02:08:57;;;;;;;11.00;5.17;;;;;;;;;;490874;241;27571;-68
2021/07/28 02:10:59;;;;;;;6.10;5.50;;;14.90;99.90;;;;;;491125;241;27576;-69
2021/07/28 02:13:03;;;;;;;6.20;5.60;;;;;;;;;;491072;240;28823;-69
2021/07/28 02:15:02;;;;;;;5.53;4.93;;;;;;;;;;490825;242;27441;-71
2021/07/28 02:17:04;;;;;;;4.90;4.43;;;;;;;;;;491124;241;27432;-71
2021/07/28 02:19:08;;;;;;;6.07;5.47;;;;;;;;;;491093;241;28120;-71
2021/07/28 02:21:11;;;;;;;7.80;5.40;;;;;;;;;;491114;241;26296;-69
2021/07/28 02:23:12;;;;;;;6.10;5.40;;;;;;;;;;491014;242;27484;-71
2021/07/28 02:25:15;;;;;;;6.70;5.50;;;;;;;;;;491111;241;27421;-72
2021/07/28 02:27:18;;;;;;;6.63;5.50;;;;;;;;;;491125;241;26248;-71
2021/07/28 02:29:21;;;;;;;7.77;5.50;;;;;;;;;;491106;241;26403;-71
2021/07/28 02:31:23;;;;;;;5.50;5.00;;;;;;;;;;491120;241;26260;-72
2021/07/28 02:33:27;;;;;;;7.17;5.63;;;;;;;;;;491076;241;27422;-71
2021/07/28 02:35:28;;;;;;;5.80;5.30;;;14.70;99.90;;;;;;491119;241;26295;-71
2021/07/28 02:37:30;;;;;;;5.90;5.30;;;14.70;99.90;;;;;;491111;241;27526;-71
2021/07/28 02:39:31;;;;;;;6.73;5.50;;;14.70;99.90;;;;;;491130;240;28346;-71
2021/07/28 02:41:32;;;;;;;5.60;5.10;;;14.70;99.90;;;;;;491128;240;28466;-69
2021/07/28 02:43:33;;;;;;;6.03;5.43;;;14.70;99.90;;;;;;491091;240;28873;-69
2021/07/28 02:45:36;;;;;;;7.77;5.63;;;;;;;;;;491132;241;28174;-69
2021/07/28 02:47:37;;;;;;;5.03;4.60;;;14.60;99.90;;;;;;491122;241;27401;-69
2021/07/28 02:49:38;;;;;;;5.73;5.13;;;14.60;99.90;;;;;;491090;241;29031;-69
2021/07/28 02:51:40;;;;;;;6.33;5.33;;;;;;;;;;491126;241;29090;-69
2021/07/28 02:53:42;;;;;;;5.47;4.87;;;;;;;;;;491082;241;27923;-68
2021/07/28 02:55:44;;;;;;;5.30;4.80;;;;;;;;;;491129;241;27401;-71
2021/07/28 02:57:46;;;;;;;5.43;4.93;;;;;;;;;;491116;241;27412;-71
2021/07/28 02:59:48;;;;;;;5.60;4.80;;;;;;;;;;491113;241;27405;-71
2021/07/28 03:01:52;;;;;;;6.50;5.10;;;;;;;;;;491127;241;27417;-69
2021/07/28 03:03:52;;;;;;;5.13;4.70;;;14.70;99.90;;;;;;491057;241;27501;-71
2021/07/28 03:05:53;;;;;;;6.10;5.40;;;14.70;99.90;;;;;;491131;241;28473;-71
2021/07/28 03:07:54;;;;;;;5.70;5.20;;;14.70;99.90;;;;;;491123;241;28949;-71
2021/07/28 03:09:55;;;;;;;4.73;4.10;;;14.60;99.90;;;;;;491068;240;28511;-70
2021/07/28 03:11:57;;;;;;;5.60;5.10;;;14.60;99.90;;;;;;490878;240;28600;-70
2021/07/28 03:13:58;;;;;;;4.77;4.37;;;14.60;99.90;;;;;;490326;240;28944;-70
2021/07/28 03:15:59;;;;;;;5.23;4.73;;;14.50;99.90;;;;;;491150;240;28434;-70
2021/07/28 03:18:01;;;;;;;5.70;5.10;;;14.50;99.90;;;;;;491135;241;29273;-70
2021/07/28 03:20:02;;;;;;;5.07;4.57;;;14.50;99.90;;;;;;491117;240;29321;-70
2021/07/28 03:22:03;;;;;;;7.60;5.00;;;14.40;99.90;;;;;;491071;240;29254;-70
2021/07/28 03:24:04;;;;;;;5.97;4.80;;;14.40;99.90;;;;;;491115;241;29097;-70
2021/07/28 03:26:05;;;;;;;5.83;4.90;;;14.40;99.90;;;;;;491151;240;28430;-70
2021/07/28 03:28:07;;;;;;;5.87;5.27;;;14.40;99.90;;;;;;491162;241;28435;-71
2021/07/28 03:30:08;;;;;;;5.50;5.00;;;14.40;99.90;;;;;;491042;240;28429;-70
2021/07/28 03:32:09;;;;;;;6.47;5.40;;;14.30;99.90;;;;;;491143;240;28505;-70
2021/07/28 03:34:11;;;;;;;5.43;4.73;;;;;;;;;;491109;241;28345;-70
2021/07/28 03:36:13;;;;;;;6.60;5.60;;;14.30;99.90;;;;;;491116;241;27441;-70
2021/07/28 03:38:14;;;;;;;5.77;4.90;;;14.30;99.90;;;;;;491113;240;28405;-69
2021/07/28 03:40:15;;;;;;;6.87;5.97;;;14.40;99.90;;;;;;491087;241;28447;-69
2021/07/28 03:42:16;;;;;;;6.10;5.07;;;14.30;99.90;;;;;;491124;241;28898;-71
2021/07/28 03:44:18;;;;;;;5.73;5.10;;;14.30;99.90;;;;;;491080;241;29582;-71
2021/07/28 03:46:19;;;;;;;4.97;4.53;;;14.30;99.90;;;;;;491126;241;29428;-71
2021/07/28 03:48:20;;;;;;;5.80;5.23;;;14.30;99.90;;;;;;491097;241;29188;-68
2021/07/28 03:50:21;;;;;;;6.20;5.00;;;14.30;99.90;;;;;;491096;241;28676;-69
2021/07/28 03:52:23;;;;;;;5.10;4.60;;;14.30;99.90;;;;;;491099;240;28485;-69
2021/07/28 03:54:24;;;;;;;5.20;4.70;;;14.30;99.90;;;;;;491084;241;28307;-71
2021/07/28 03:56:25;;;;;;;5.87;5.27;;;14.20;99.90;;;;;;491109;241;28420;-71
2021/07/28 03:58:26;;;;;;;5.30;4.80;;;14.30;99.90;;;;;;491111;240;28617;-71
2021/07/28 04:00:28;;;;;;;5.60;5.00;;;14.30;99.90;;;;;;491059;240;28767;-70
2021/07/28 04:02:29;;;;;;;6.50;5.13;;;14.40;99.90;;;;;;491131;241;28951;-69
2021/07/28 04:04:30;;;;;;;5.07;4.57;;;14.40;99.90;;;;;;491091;241;28408;-69
2021/07/28 04:06:31;;;;;;;5.17;4.77;;;14.50;99.90;;;;;;491099;241;28821;-69
2021/07/28 04:08:33;;;;;;;6.20;5.20;;;;;;;;;;491101;240;28759;-71
2021/07/28 04:10:37;;;;;;;5.60;4.93;;;14.70;99.90;;;;;;491077;241;27956;-71
2021/07/28 04:12:37;;;;;;;6.40;5.00;;;14.80;99.90;;;;;;490900;242;29212;-71
2021/07/28 04:14:39;;;;;;;5.40;4.90;;;;;;;;;;491078;241;27423;-72
2021/07/28 04:16:41;;;;;;;6.27;5.00;;;;;;;;;;491116;241;26356;-70
2021/07/28 04:18:42;;;;;;;4.80;4.40;;;14.90;99.90;;;;;;491079;241;27515;-70
2021/07/28 04:20:45;;;;;;;4.90;4.40;;;;;;;;;;491078;240;29843;-70
2021/07/28 04:22:47;;;;;;;5.73;5.10;;;;;;;;;;491058;241;27916;-70
2021/07/28 04:24:49;;;;;;;6.37;5.20;;;;;;;;;;491079;241;28011;-69
2021/07/28 04:26:50;;;;;;;6.47;4.97;;;15.00;99.90;;;;;;491092;241;28005;-72
2021/07/28 04:28:52;;;;;;;5.83;4.67;;;;;;;;;;491071;241;28415;-69
2021/07/28 04:30:53;;;;;;;5.20;4.70;;;15.20;99.90;;;;;;491109;241;27436;-70
2021/07/28 04:32:54;;;;;;;5.03;4.63;;;15.20;99.90;;;;;;491093;241;28608;-70
2021/07/28 04:34:56;;;;;;;5.80;4.50;;;15.20;99.90;;;;;;491069;241;28858;-70
2021/07/28 04:36:57;;;;;;;6.23;4.57;;;15.20;99.90;;;;;;491114;241;29182;-70
2021/07/28 04:38:58;;;;;;;6.10;5.50;;;15.30;99.90;;;;;;491076;241;29325;-70
2021/07/28 04:40:59;;;;;;;5.43;4.90;;;15.30;99.90;;;;;;491140;240;30208;-70
2021/07/28 04:43:01;;;;;;;5.63;4.97;;;15.30;99.90;;;;;;491100;241;28998;-70
2021/07/28 04:45:02;;;;;;;6.97;5.27;;;15.30;99.90;;;;;;491097;240;28747;-70
2021/07/28 04:47:03;;;;;;;6.47;4.73;;;15.30;99.90;;;;;;491117;241;28855;-70
2021/07/28 04:49:04;;;;;;;5.70;5.20;;;15.40;99.90;;;;;;491078;241;28992;-70
2021/07/28 04:51:06;;;;;;;4.77;4.37;;;15.50;99.90;;;;;;491096;241;28850;-72
2021/07/28 04:53:07;;;;;;;6.27;5.17;;;15.50;99.90;;;;;;491078;242;28740;-71
2021/07/28 04:55:08;;;;;;;5.83;5.33;;;15.50;99.90;;;;;;490744;241;28955;-71
2021/07/28 04:57:09;;;;;;;5.73;5.17;;;15.50;99.90;;;;;;491126;241;28909;-72
2021/07/28 04:59:11;;;;;;;7.47;5.43;;;15.70;99.90;;;;;;491097;241;29220;-71
2021/07/28 05:01:12;;;;;;;5.40;4.90;;;15.80;99.90;;;;;;491121;241;30137;-71
2021/07/28 05:03:13;;;;;;;6.00;5.33;;;15.80;99.90;;;;;;491121;241;29344;-69
2021/07/28 05:05:14;;;;;;;5.47;4.93;;;15.80;99.90;;;;;;491080;241;29432;-69
2021/07/28 05:07:16;;;;;;;8.27;5.60;;;15.90;99.90;;;;;;491148;241;28891;-69
2021/07/28 05:09:17;;;;;;;5.87;5.27;;;15.90;99.90;;;;;;491101;241;28872;-71
2021/07/28 05:11:18;;;;;;;8.30;5.40;;;15.90;99.90;;;;;;491125;241;28848;-71
2021/07/28 05:13:19;;;;;;;5.90;4.73;;;15.90;99.90;;;;;;491114;241;28721;-70
2021/07/28 05:15:21;;;;;;;5.33;4.83;;;16.00;99.90;;;;;;491124;240;28858;-70
2021/07/28 05:17:24;;;;;;;6.30;4.70;;;16.00;99.90;;;;;;491141;241;28835;-71
2021/07/28 05:19:23;;;;;;;5.60;5.10;;;16.10;99.90;;;;;;490953;242;28977;-71
2021/07/28 05:21:24;;;;;;;5.87;5.27;;;16.00;99.90;;;;;;491127;240;29205;-71
2021/07/28 05:23:26;;;;;;;5.53;5.03;;;16.10;99.90;;;;;;491135;241;28940;-72
2021/07/28 05:25:30;;;;;;;5.73;5.20;;;16.10;99.90;;;;;;491075;240;29321;-71
2021/07/28 05:27:28;;;;;;;5.93;5.33;;;16.10;99.90;;;;;;490733;242;29283;-71
2021/07/28 05:29:29;;;;;;;6.07;5.47;;;16.10;99.90;;;;;;491117;240;29371;-71
2021/07/28 05:31:31;;;;;;;6.40;5.80;;;16.20;99.90;;;;;;491158;240;28887;-69
2021/07/28 05:33:32;;;;;;;5.77;5.17;;;16.20;99.90;;;;;;491131;240;28923;-69
2021/07/28 05:35:33;;;;;;;7.20;5.67;;;16.10;99.90;;;;;;491128;240;28873;-69
2021/07/28 05:37:34;;;;;;;7.27;5.70;;;16.10;99.90;;;;;;491105;240;28756;-69
2021/07/28 05:39:36;;;;;;;5.83;5.27;;;16.10;99.90;;;;;;491103;241;28975;-72
2021/07/28 05:41:37;;;;;;;5.30;4.80;;;16.00;99.90;;;;;;491010;241;28878;-71
2021/07/28 05:43:38;;;;;;;6.83;5.83;;;15.90;99.90;;;;;;491106;241;28833;-71
2021/07/28 05:45:39;;;;;;;8.80;5.30;;;16.00;99.90;;;;;;491106;240;28861;-71
2021/07/28 05:47:41;;;;;;;6.00;5.50;;;16.00;99.90;;;;;;491123;240;28819;-70
2021/07/28 05:49:42;;;;;;;6.33;5.43;;;16.00;99.90;;;;;;491071;241;29416;-71
2021/07/28 05:51:43;;;;;;;6.30;5.67;;;16.00;99.90;;;;;;491141;240;29472;-69
2021/07/28 05:53:45;;;;;;;6.30;5.70;;;16.00;99.90;;;;;;491110;241;29382;-69
2021/07/28 05:55:46;;;;;;;5.93;5.33;;;16.10;99.90;;;;;;491121;240;29382;-69
2021/07/28 05:57:48;;;;;;;5.67;5.17;;;16.10;99.90;;;;;;491117;241;28810;-69
2021/07/28 05:59:48;;;;;;;5.80;5.13;;;16.10;99.90;;;;;;491040;241;28910;-71
2021/07/28 06:01:50;;;;;;;5.23;4.80;;;16.20;99.90;;;;;;491129;240;28863;-72
2021/07/28 06:03:51;;;;;;;5.80;5.13;;;16.20;99.90;;;;;;491089;240;28913;-71
2021/07/28 06:05:52;;;;;;;5.63;4.87;;;16.20;99.90;;;;;;491107;240;28981;-71
2021/07/28 06:07:53;;;;;;;6.60;5.70;;;16.30;99.90;;;;;;491133;241;28863;-69
2021/07/28 06:09:55;;;;;;;6.00;5.40;;;16.20;99.90;;;;;;491064;241;28835;-69
2021/07/28 06:11:56;;;;;;;6.23;5.60;;;16.20;99.90;;;;;;491117;241;28859;-69
2021/07/28 06:13:57;;;;;;;6.27;5.67;;;16.20;99.90;;;;;;491084;240;29200;-69
2021/07/28 06:15:58;;;;;;;5.27;4.77;;;16.20;99.90;;;;;;491101;241;29394;-69
2021/07/28 06:18:00;;;;;;;5.63;5.13;;;16.20;99.90;;;;;;491048;240;29293;-72
2021/07/28 06:20:01;;;;;;;9.03;5.63;;;16.10;99.90;;;;;;491077;241;29213;-71
2021/07/28 06:22:02;;;;;;;6.63;5.50;;;16.20;99.90;;;;;;491139;240;28759;-71
2021/07/28 06:24:03;;;;;;;7.40;5.70;;;16.10;99.90;;;;;;491103;241;28816;-71
2021/07/28 06:26:05;;;;;;;6.10;5.50;;;;;;;;;;490991;241;28874;-70
2021/07/28 06:28:08;;;;;;;7.63;6.20;;;;;;;;;;491116;241;27507;-71
2021/07/28 06:30:10;;;;;;;8.17;5.87;;;16.20;99.90;;;;;;491073;241;27516;-72
2021/07/28 06:32:11;;;;;;;8.87;5.80;;;16.20;99.90;;;;;;491101;241;27429;-72
2021/07/28 06:34:13;;;;;;;7.23;5.60;;;;;;;;;;491112;241;28737;-70
2021/07/28 06:36:14;;;;;;;6.20;5.60;;;16.20;99.90;;;;;;491106;241;27389;-69
2021/07/28 06:38:15;;;;;;;6.90;6.20;;;16.20;99.90;;;;;;491118;241;29168;-70
2021/07/28 06:40:17;;;;;;;8.00;5.83;;;16.20;99.90;;;;;;491072;241;29266;-69
2021/07/28 06:42:18;;;;;;;6.43;5.47;;;16.30;99.90;;;;;;491123;240;29279;-69
2021/07/28 06:44:19;;;;;;;9.57;6.23;;;16.40;99.90;;;;;;491102;241;28768;-72
2021/07/28 06:46:20;;;;;;;6.73;5.83;;;16.60;99.90;;;;;;491092;241;28744;-72
2021/07/28 06:48:22;;;;;;;6.77;6.07;;;16.70;99.90;;;;;;491092;240;28828;-72
2021/07/28 06:50:23;;;;;;;6.90;6.20;;;16.70;99.90;;;;;;491105;240;28886;-72
2021/07/28 06:52:24;;;;;;;6.97;5.63;;;16.80;99.90;;;;;;491097;241;28828;-69
2021/07/28 06:54:25;;;;;;;6.50;5.80;;;16.90;99.90;;;;;;491061;240;28827;-71
2021/07/28 06:56:27;;;;;;;6.23;5.63;;;16.90;99.90;;;;;;491071;241;28916;-69
2021/07/28 06:58:28;;;;;;;6.50;5.30;;;17.00;99.90;;;;;;491116;240;28820;-70
2021/07/28 07:00:29;;;;;;;7.10;5.60;;;16.90;99.90;;;;;;491101;240;28903;-71
2021/07/28 07:02:30;;;;;;;5.80;5.20;;;16.90;99.90;;;;;;491111;241;29192;-72
2021/07/28 07:04:32;;;;;;;5.67;5.00;;;17.00;99.90;;;;;;491099;241;29445;-70
2021/07/28 07:06:33;;;;;;;7.70;6.00;;;17.00;99.90;;;;;;491100;240;29589;-71
2021/07/28 07:08:34;;;;;;;6.27;5.67;;;17.00;99.90;;;;;;491097;241;29266;-71
2021/07/28 07:10:35;;;;;;;6.40;5.80;;;17.10;99.90;;;;;;491003;241;28847;-72
2021/07/28 07:12:38;;;;;;;5.27;4.77;;;17.10;99.90;;;;;;491119;241;28821;-72
2021/07/28 07:14:38;;;;;;;5.80;5.20;;;17.30;99.90;;;;;;491005;242;28765;-71
2021/07/28 07:16:39;;;;;;;6.47;5.77;;;17.30;99.90;;;;;;491097;240;28766;-71
2021/07/28 07:18:40;;;;;;;6.90;6.20;;;17.30;99.90;;;;;;491098;241;28721;-71
2021/07/28 07:20:42;;;;;;;8.57;6.77;;;17.30;99.90;;;;;;491087;241;28875;-72
2021/07/28 07:22:43;;;;;;;6.37;5.77;;;17.30;99.90;;;;;;491105;240;28845;-69
2021/07/28 07:24:44;;;;;;;7.63;6.27;;;17.30;99.90;;;;;;491094;241;28759;-69
2021/07/28 07:26:45;;;;;;;6.70;5.33;;;17.50;99.90;;;;;;491096;241;29781;-70
2021/07/28 07:28:47;;;;;;;7.30;5.87;;;17.60;99.90;;;;;;491118;240;29300;-71
2021/07/28 07:30:50;;;;;;;6.10;5.50;;;17.70;99.90;;;;;;491085;241;29331;-72
2021/07/28 07:35:09;;;;;;;10.40;5.93;;;17.70;99.90;;;;;;491085;242;28752;-72
2021/07/28 07:37:10;;;;;;;6.03;5.43;;;17.60;99.90;;;;;;491104;240;28854;-72
2021/07/28 07:39:11;;;;;;;7.17;6.17;;;17.60;99.90;;;;;;491017;241;29432;-71
2021/07/28 07:41:13;;;;;;;5.83;5.17;;;17.60;99.90;;;;;;491098;240;29308;-72
2021/07/28 07:43:14;;;;;;;6.80;5.60;;;17.70;99.90;;;;;;491103;240;29440;-72
2021/07/28 07:45:15;;;;;;;6.13;5.23;;;17.70;99.90;;;;;;491111;240;29294;-71
2021/07/28 07:47:18;;;;;;;7.47;5.17;;;17.80;99.90;;;;;;491068;241;28930;-72
2021/07/28 07:49:18;;;;;;;8.00;5.43;;;17.90;99.90;;;;;;491044;241;28870;-72
2021/07/28 07:51:19;;;;;;;8.00;5.60;;;18.00;99.90;;;;;;491058;241;28954;-72
2021/07/28 07:53:20;;;;;;;6.90;6.13;;;18.00;99.90;;;;;;490891;241;28860;-72
2021/07/28 07:55:21;;;;;;;6.70;6.00;;;17.90;99.90;;;;;;490994;241;28737;-70
2021/07/28 07:57:23;;;;;;;5.70;5.20;;;17.90;99.90;;;;;;491123;241;28935;-70
2021/07/28 07:59:24;;;;;;;6.33;5.73;;;18.00;99.90;;;;;;491121;241;28858;-70
2021/07/28 08:01:25;;;;;;;7.77;5.80;;;17.90;99.90;;;;;;491047;241;28760;-70
2021/07/28 08:03:26;;;;;;;6.80;5.20;;;18.00;99.90;;;;;;491091;241;29860;-70
2021/07/28 08:05:28;;;;;;;8.97;6.53;;;18.10;99.90;;;;;;491093;240;29304;-72
2021/07/28 08:07:29;;;;;;;7.60;5.60;;;18.20;99.90;;;;;;491068;241;29349;-69
2021/07/28 08:09:30;;;;;;;6.33;5.70;;;18.20;99.90;;;;;;491100;241;28836;-70
2021/07/28 08:11:31;;;;;;;6.87;5.80;;;18.10;99.90;;;;;;491054;241;29353;-71
2021/07/28 08:13:33;;;;;;;6.43;5.83;;;18.20;99.90;;;;;;491090;241;29820;-70
2021/07/28 08:15:34;;;;;;;7.00;5.30;;;18.40;99.90;;;;;;491037;241;28871;-72
2021/07/28 08:17:35;;;;;;;7.27;5.30;;;18.50;99.90;;;;;;491079;241;28875;-71
2021/07/28 08:19:36;;;;;;;7.00;5.63;;;18.60;99.90;;;;;;491032;241;28848;-69
2021/07/28 08:21:38;;;;;;;7.70;5.80;;;18.60;99.90;;;;;;491006;240;28847;-72
2021/07/28 08:23:39;;;;;;;7.20;5.40;;;18.50;99.90;;;;;;491049;240;28938;-69
2021/07/28 08:25:40;;;;;;;7.53;5.17;;;18.50;99.90;;;;;;491073;240;28729;-71
2021/07/28 08:27:42;;;;;;;5.50;5.00;;;18.50;99.90;;;;;;491037;241;28866;-71
2021/07/28 08:29:43;;;;;;;6.27;5.50;;;18.50;99.90;;;;;;491069;241;28819;-72
2021/07/28 08:31:44;;;;;;;6.27;5.43;;;18.40;99.90;;;;;;491040;241;29350;-70
2021/07/28 08:33:45;;;;;;;7.60;5.80;;;18.50;99.90;;;;;;491063;241;29239;-70
2021/07/28 08:35:47;;;;;;;5.80;5.20;;;18.60;99.90;;;;;;491067;240;29292;-72
2021/07/28 08:37:48;;;;;;;6.07;5.47;;;18.80;99.90;;;;;;491110;240;29436;-71
2021/07/28 08:39:49;;;;;;;7.90;5.13;;;18.90;99.90;;;;;;491122;241;28834;-72
2021/07/28 08:41:50;;;;;;;6.73;5.73;;;18.90;99.90;;;;;;491105;241;28828;-70
2021/07/28 08:43:53;;;;;;;7.00;5.23;;;18.80;99.90;;;;;;491125;241;28796;-72
2021/07/28 08:45:53;;;;;;;6.53;5.33;;;18.70;99.90;;;;;;491016;242;28863;-71
2021/07/28 08:47:54;;;;;;;7.03;5.63;;;19.00;99.90;;;;;;491108;240;28772;-72
2021/07/28 08:49:55;;;;;;;6.53;5.20;;;19.20;99.90;;;;;;491109;241;28724;-72
2021/07/28 08:51:57;;;;;;;6.30;5.60;;;19.30;99.90;;;;;;491090;241;28760;-71
2021/07/28 08:53:58;;;;;;;5.87;5.27;;;19.50;99.90;;;;;;491086;240;28736;-71
2021/07/28 08:55:59;;;;;;;5.70;5.10;;;19.80;99.90;;;;;;491108;241;28743;-71
2021/07/28 08:58:00;;;;;;;6.53;5.07;;;19.90;99.90;;;;;;491078;241;29214;-71
2021/07/28 09:00:02;;;;;;;5.43;4.97;;;19.80;99.90;;;;;;491088;241;29266;-71
2021/07/28 09:02:03;;;;;;;5.90;5.40;;;19.80;99.90;;;;;;491093;241;29205;-71
2021/07/28 09:04:04;;;;;;;5.50;5.00;;;19.60;99.90;;;;;;491103;241;28768;-71
2021/07/28 09:06:05;;;;;;;6.87;6.00;;;19.60;99.90;;;;;;491117;241;28723;-71
2021/07/28 09:08:07;;;;;;;5.93;5.00;;;19.60;99.90;;;;;;491035;241;28840;-71
2021/07/28 09:10:08;;;;;;;7.07;6.07;;;19.60;99.90;;;;;;491111;241;28897;-71
2021/07/28 09:12:09;;;;;;;6.20;5.40;;;19.60;99.90;;;;;;491055;241;28729;-71
2021/07/28 09:14:10;;;;;;;5.67;5.13;;;19.70;99.90;;;;;;491066;241;28863;-71
2021/07/28 09:16:12;;;;;;;6.80;5.83;;;19.70;99.90;;;;;;491100;241;28727;-71
2021/07/28 09:18:13;;;;;;;5.63;5.10;;;19.50;99.90;;;;;;491083;241;28853;-72
2021/07/28 09:20:14;;;;;;;6.43;5.40;;;19.50;99.90;;;;;;491060;241;28753;-71
2021/07/28 09:22:16;;;;;;;5.77;5.17;;;19.50;99.90;;;;;;491060;241;29259;-71
2021/07/28 09:24:17;;;;;;;6.13;5.53;;;19.40;99.90;;;;;;490912;242;29362;-72
2021/07/28 09:26:18;;;;;;;5.93;5.30;;;19.40;99.90;;;;;;491097;241;29421;-71
2021/07/28 09:28:20;;;;;;;6.60;5.07;;;19.80;99.90;;;;;;491087;241;28851;-71
2021/07/28 09:30:20;;;;;;;5.50;4.93;;;20.10;99.90;;;;;;491052;241;28767;-72
2021/07/28 09:32:22;;;;;;;5.70;5.03;;;20.10;99.90;;;;;;491084;241;28731;-71
2021/07/28 09:34:24;;;;;;;6.83;5.33;;;20.10;99.90;;;;;;491108;241;28837;-71
2021/07/28 09:36:24;;;;;;;6.47;5.77;;;19.90;99.90;;;;;;491049;241;28895;-71
2021/07/28 09:38:25;;;;;;;6.40;5.80;;;19.80;99.90;;;;;;491077;241;28839;-71
2021/07/28 09:40:27;;;;;;;5.70;5.10;;;19.60;99.90;;;;;;491085;241;29100;-71
2021/07/28 09:42:28;;;;;;;9.93;5.73;;;19.30;99.90;;;;;;491079;241;28842;-71
2021/07/28 09:44:29;;;;;;;9.33;5.70;;;19.00;99.90;;;;;;491100;240;28961;-71
2021/07/28 09:46:30;;;;;;;4.93;4.30;;;18.90;99.90;;;;;;491104;241;29355;-71
2021/07/28 09:48:32;;;;;;;6.00;5.40;;;19.00;99.90;;;;;;491102;241;29308;-71
2021/07/28 09:50:33;;;;;;;7.23;5.40;;;19.10;99.90;;;;;;491111;241;29485;-71
2021/07/28 09:52:34;;;;;;;6.00;5.40;;;19.20;99.90;;;;;;491051;241;28880;-71
2021/07/28 09:54:35;;;;;;;4.70;4.30;;;19.40;99.90;;;;;;490990;241;28819;-71
2021/07/28 09:56:37;;;;;;;5.33;4.80;;;19.40;99.90;;;;;;490972;240;28801;-71
2021/07/28 09:58:38;;;;;;;5.70;4.63;;;19.50;99.90;;;;;;490821;240;28766;-71
2021/07/28 10:00:39;;;;;;;5.10;4.60;;;19.70;99.90;;;;;;490982;241;28767;-71
2021/07/28 10:02:40;;;;;;;7.20;5.27;;;19.90;99.90;;;;;;491100;241;28836;-71
2021/07/28 10:04:42;;;;;;;5.80;4.67;;;20.00;99.90;;;;;;491113;240;28867;-71
2021/07/28 10:06:46;;;;;;;5.40;4.90;;;20.10;99.90;;;;;;491128;241;28810;-71
2021/07/28 10:08:44;;;;;;;5.23;4.47;;;20.20;99.90;;;;;;490729;242;28845;-71
2021/07/28 10:10:45;;;;;;;5.73;5.20;;;20.20;99.90;;;;;;491119;241;29290;-71
2021/07/28 10:12:48;;;;;;;6.90;4.27;;;20.10;99.90;;;;;;491091;240;29285;-72
2021/07/28 10:14:48;;;;;;;5.33;4.63;;;20.10;99.90;;;;;;491047;240;29330;-71
2021/07/28 10:16:49;;;;;;;5.40;4.90;;;20.40;99.90;;;;;;491153;241;28832;-71
2021/07/28 10:18:51;;;;;;;7.23;4.40;;;20.50;99.90;;;;;;491104;240;28932;-71
2021/07/28 10:20:52;;;;;;;5.80;5.20;;;20.70;99.90;;;;;;491141;240;28936;-71
2021/07/28 10:22:53;;;;;;;5.87;5.27;;;20.70;99.90;;;;;;491099;241;28831;-71
2021/07/28 10:24:54;;;;;;;5.40;4.60;;;20.10;99.90;;;;;;491106;241;28870;-72
2021/07/28 10:26:55;;;;;;;4.13;3.83;;;20.10;99.90;;;;;;491103;241;28715;-69
2021/07/28 10:28:57;;;;;;;7.00;4.50;;;20.30;99.90;;;;;;491054;241;28826;-71
2021/07/28 10:30:58;;;;;;;5.10;4.60;;;20.30;99.90;;;;;;491128;240;28879;-72
2021/07/28 10:32:59;;;;;;;5.27;4.77;;;20.30;99.90;;;;;;491091;240;28826;-71
2021/07/28 10:35:00;;;;;;;6.40;5.23;;;20.30;99.90;;;;;;491115;241;29352;-71
2021/07/28 10:37:03;;;;;;;5.33;4.83;;;20.30;99.90;;;;;;491109;240;29193;-72
2021/07/28 10:39:03;;;;;;;5.30;4.60;;;20.30;99.90;;;;;;491052;241;29192;-71
2021/07/28 10:41:07;;;;;;;4.60;4.20;;;20.10;99.90;;;;;;491122;241;29247;-72
2021/07/28 10:43:05;;;;;;;5.37;4.77;;;20.00;99.90;;;;;;490884;242;28881;-72
2021/07/28 10:45:07;;;;;;;4.30;3.90;;;19.90;99.90;;;;;;491118;240;28953;-71
2021/07/28 10:47:08;;;;;;;5.00;4.60;;;20.00;99.90;;;;;;491108;240;28799;-71
2021/07/28 10:49:09;;;;;;;10.93;4.57;;;20.10;99.90;;;;;;491079;240;28769;-71
2021/07/28 10:51:10;;;;;;;5.03;4.53;;;20.20;99.90;;;;;;491103;241;28882;-71
2021/07/28 10:53:12;;;;;;;5.27;4.50;;;20.20;99.90;;;;;;491100;240;28738;-71
2021/07/28 10:55:15;;;;;;;5.23;4.77;;;20.10;99.90;;;;;;491113;241;28929;-71
2021/07/28 10:57:14;;;;;;;4.50;3.80;;;20.10;99.90;;;;;;490952;242;28851;-71
2021/07/28 10:59:15;;;;;;;5.23;4.37;;;20.20;99.90;;;;;;491091;241;29191;-71